createdAt,value
2023-01-19T00:00:34.335Z,-1.24
2023-01-19T00:01:37.153Z,-1.22
2023-01-19T00:02:39.162Z,-1.20
2023-01-19T00:03:42.351Z,-1.20
2023-01-19T00:04:44.107Z,-1.19
2023-01-19T00:05:46.973Z,-1.18
2023-01-19T00:06:50.006Z,-1.15
2023-01-19T00:07:51.855Z,-1.21
2023-01-19T00:08:54.534Z,-1.20
2023-01-19T00:09:56.251Z,-1.19
2023-01-19T00:10:58.974Z,-1.16
2023-01-19T00:12:01.712Z,-1.20
2023-01-19T00:13:03.649Z,-1.15
2023-01-19T00:14:07.853Z,-1.13
2023-01-19T00:15:10.541Z,-1.12
2023-01-19T00:16:13.361Z,-1.11
2023-01-19T00:17:16.064Z,-1.07
2023-01-19T00:18:17.760Z,-1.06
2023-01-19T00:19:20.440Z,-1.07
2023-01-19T00:20:22.100Z,-1.07
2023-01-19T00:21:26.868Z,-1.05
2023-01-19T00:22:28.638Z,-1.05
2023-01-19T00:23:31.274Z,-1.07
2023-01-19T00:24:32.999Z,-1.06
2023-01-19T00:25:35.829Z,-1.08
2023-01-19T00:26:40.338Z,-1.10
2023-01-19T00:27:42.047Z,-1.09
2023-01-19T00:28:45.014Z,-1.10
2023-01-19T00:29:48.131Z,-1.09
2023-01-19T00:30:51.513Z,-1.09
2023-01-19T00:31:54.155Z,-1.13
2023-01-19T00:32:59.553Z,-1.11
2023-01-19T00:34:02.455Z,-1.11
2023-01-19T00:35:04.880Z,-1.07
2023-01-19T00:36:08.323Z,-1.06
2023-01-19T00:37:10.344Z,-1.06
2023-01-19T00:38:13.484Z,-1.06
2023-01-19T00:39:15.551Z,-1.07
2023-01-19T00:40:19.073Z,-1.09
2023-01-19T00:41:40.997Z,-1.06
2023-01-19T00:42:45.247Z,-1.05
2023-01-19T00:43:46.987Z,-1.07
2023-01-19T00:44:51.023Z,-1.05
2023-01-19T00:45:53.588Z,-1.12
2023-01-19T00:46:56.419Z,-1.09
2023-01-19T00:47:58.238Z,-1.09
2023-01-19T00:49:00.938Z,-1.07
2023-01-19T00:50:02.982Z,-1.07
2023-01-19T00:51:06.112Z,-1.09
2023-01-19T00:52:07.861Z,-1.08
2023-01-19T00:53:10.556Z,-1.10
2023-01-19T00:54:12.240Z,-1.13
2023-01-19T00:55:16.355Z,-1.17
2023-01-19T00:56:18.131Z,-1.12
2023-01-19T00:57:20.901Z,-1.20
2023-01-19T00:58:22.834Z,-1.17
2023-01-19T00:59:26.691Z,-1.14
2023-01-19T01:00:30.150Z,-1.13
2023-01-19T01:01:45.446Z,-1.11
2023-01-19T01:02:49.234Z,-1.10
2023-01-19T01:03:53.405Z,-1.13
2023-01-19T01:04:56.755Z,-1.11
2023-01-19T01:05:59.589Z,-1.11
2023-01-19T01:07:01.314Z,-1.16
2023-01-19T01:08:04.154Z,-1.12
2023-01-19T01:09:11.947Z,-1.12
2023-01-19T01:10:18.019Z,-1.11
2023-01-19T01:11:19.692Z,-1.10
2023-01-19T01:12:22.395Z,-1.08
2023-01-19T01:13:27.269Z,-1.09
2023-01-19T01:14:30.547Z,-1.10
2023-01-19T01:15:34.686Z,-1.08
2023-01-19T01:16:37.411Z,-1.09
2023-01-19T01:17:46.640Z,-1.07
2023-01-19T01:18:49.372Z,-1.07
2023-01-19T01:19:51.445Z,-1.06
2023-01-19T01:20:56.234Z,-1.06
2023-01-19T01:21:58.065Z,-1.03
2023-01-19T01:23:01.154Z,-1.06
2023-01-19T01:24:03.166Z,-1.06
2023-01-19T01:25:06.679Z,-1.03
2023-01-19T01:26:09.389Z,-1.07
2023-01-19T01:27:11.862Z,-1.10
2023-01-19T01:28:14.555Z,-1.09
2023-01-19T01:29:16.340Z,-1.12
2023-01-19T01:30:19.879Z,-1.14
2023-01-19T01:31:23.038Z,-1.16
2023-01-19T01:32:25.868Z,-1.15
2023-01-19T01:33:41.092Z,-1.12
2023-01-19T01:34:44.690Z,-1.13
2023-01-19T01:35:46.397Z,-1.14
2023-01-19T01:36:49.222Z,-1.19
2023-01-19T01:37:50.913Z,-1.16
2023-01-19T01:38:53.779Z,-1.14
2023-01-19T01:39:55.541Z,-1.13
2023-01-19T01:40:58.228Z,-1.11
2023-01-19T01:41:59.987Z,-1.15
2023-01-19T01:43:03.094Z,-1.14
2023-01-19T01:44:38.171Z,-1.14
2023-01-19T01:45:42.293Z,-1.15
2023-01-19T01:46:45.466Z,-1.19
2023-01-19T01:47:49.631Z,-1.18
2023-01-19T01:48:55.143Z,-1.15
2023-01-19T01:50:02.464Z,-1.15
2023-01-19T01:51:25.202Z,-1.20
2023-01-19T01:52:29.705Z,-1.20
2023-01-19T01:53:33.213Z,-1.19
2023-01-19T01:54:35.945Z,-1.19
2023-01-19T01:55:41.277Z,-1.16
2023-01-19T01:56:45.652Z,-1.17
2023-01-19T01:57:51.388Z,-1.16
2023-01-19T01:58:54.381Z,-1.16
2023-01-19T01:59:58.044Z,-1.13
2023-01-19T02:01:18.674Z,-1.11
2023-01-19T02:02:41.948Z,-1.12
2023-01-19T02:03:45.396Z,-1.11
2023-01-19T02:04:48.880Z,-1.12
2023-01-19T02:05:52.233Z,-1.13
2023-01-19T02:07:12.453Z,-1.13
2023-01-19T02:08:35.306Z,-1.10
2023-01-19T02:09:56.133Z,-1.09
2023-01-19T02:11:17.022Z,-1.06
2023-01-19T02:12:37.340Z,-1.05
2023-01-19T02:13:43.801Z,-1.08
2023-01-19T02:14:45.514Z,-1.05
2023-01-19T02:15:49.684Z,-1.03
2023-01-19T02:16:51.604Z,-1.02
2023-01-19T02:17:58.438Z,-0.99
2023-01-19T02:19:01.344Z,-0.98
2023-01-19T02:20:03.385Z,-0.97
2023-01-19T02:21:11.464Z,-0.97
2023-01-19T02:22:17.012Z,-0.99
2023-01-19T02:23:44.240Z,-0.97
2023-01-19T02:24:46.216Z,-0.95
2023-01-19T02:25:49.228Z,-0.97
2023-01-19T02:26:51.426Z,-0.98
2023-01-19T02:27:54.630Z,-0.98
2023-01-19T02:28:58.458Z,-0.97
2023-01-19T02:30:03.662Z,-0.97
2023-01-19T02:31:06.384Z,-0.97
2023-01-19T02:32:09.333Z,-0.97
2023-01-19T02:33:11.117Z,-0.96
2023-01-19T02:34:16.325Z,-1.02
2023-01-19T02:35:18.345Z,-1.02
2023-01-19T02:36:24.663Z,-1.04
2023-01-19T02:37:26.902Z,-1.06
2023-01-19T02:38:29.782Z,-1.08
2023-01-19T02:39:36.583Z,-1.08
2023-01-19T02:40:39.978Z,-1.22
2023-01-19T02:41:44.577Z,-1.17
2023-01-19T02:42:49.888Z,-1.16
2023-01-19T02:43:52.928Z,-1.16
2023-01-19T02:44:57.145Z,-1.15
2023-01-19T02:45:58.999Z,-1.16
2023-01-19T02:47:01.751Z,-1.15
2023-01-19T02:48:05.460Z,-1.10
2023-01-19T02:49:08.108Z,-1.08
2023-01-19T02:50:28.661Z,-1.07
2023-01-19T02:51:32.261Z,-1.07
2023-01-19T02:52:34.116Z,-1.09
2023-01-19T02:54:04.740Z,-1.07
2023-01-19T02:55:13.377Z,-1.08
2023-01-19T02:56:47.215Z,-1.09
2023-01-19T02:57:55.032Z,-1.12
2023-01-19T02:59:02.933Z,-1.13
2023-01-19T03:00:17.586Z,-1.10
2023-01-19T03:01:27.061Z,-1.12
2023-01-19T03:02:36.194Z,-1.12
2023-01-19T03:03:46.260Z,-1.09
2023-01-19T03:04:57.743Z,-1.09
2023-01-19T03:06:05.228Z,-1.07
2023-01-19T03:07:10.436Z,-1.07
2023-01-19T03:08:17.321Z,-1.11
2023-01-19T03:09:26.593Z,-1.11
2023-01-19T03:10:32.811Z,-1.15
2023-01-19T03:11:40.336Z,-1.15
2023-01-19T03:12:45.292Z,-1.14
2023-01-19T03:13:50.576Z,-1.14
2023-01-19T03:14:57.872Z,-1.15
2023-01-19T03:16:04.838Z,-1.14
2023-01-19T03:17:07.830Z,-1.19
2023-01-19T03:18:12.622Z,-1.16
2023-01-19T03:19:19.179Z,-1.16
2023-01-19T03:20:24.678Z,-1.15
2023-01-19T03:21:28.001Z,-1.15
2023-01-19T03:22:30.915Z,-1.15
2023-01-19T03:23:34.200Z,-1.15
2023-01-19T03:24:40.059Z,-1.15
2023-01-19T03:25:44.602Z,-1.17
2023-01-19T03:26:50.439Z,-1.12
2023-01-19T03:27:54.164Z,-1.11
2023-01-19T03:28:57.700Z,-1.13
2023-01-19T03:30:01.416Z,-1.18
2023-01-19T03:31:07.521Z,-1.13
2023-01-19T03:32:12.569Z,-1.14
2023-01-19T03:33:17.572Z,-1.15
2023-01-19T03:34:22.185Z,-1.18
2023-01-19T03:35:25.972Z,-1.14
2023-01-19T03:36:31.859Z,-1.14
2023-01-19T03:37:35.360Z,-1.17
2023-01-19T03:38:38.420Z,-1.13
2023-01-19T03:39:41.906Z,-1.18
2023-01-19T03:40:45.766Z,-1.17
2023-01-19T03:41:49.790Z,-1.14
2023-01-19T03:42:51.777Z,-1.13
2023-01-19T03:43:55.508Z,-1.14
2023-01-19T03:44:58.120Z,-1.11
2023-01-19T03:46:01.955Z,-1.08
2023-01-19T03:47:05.103Z,-1.08
2023-01-19T03:48:08.368Z,-1.12
2023-01-19T03:49:10.228Z,-1.11
2023-01-19T03:50:15.786Z,-1.06
2023-01-19T03:51:19.398Z,-1.04
2023-01-19T03:52:28.999Z,-1.08
2023-01-19T03:53:30.747Z,-1.08
2023-01-19T03:54:33.573Z,-1.12
2023-01-19T03:55:36.001Z,-1.15
2023-01-19T03:56:40.082Z,-1.15
2023-01-19T03:57:41.847Z,-1.17
2023-01-19T03:58:44.559Z,-1.15
2023-01-19T03:59:46.297Z,-1.16
2023-01-19T04:00:49.020Z,-1.11
2023-01-19T04:01:50.750Z,-1.11
2023-01-19T04:02:53.609Z,-1.09
2023-01-19T04:03:55.397Z,-1.09
2023-01-19T04:04:58.107Z,-1.11
2023-01-19T04:05:59.810Z,-1.15
2023-01-19T04:07:02.524Z,-1.10
2023-01-19T04:08:04.281Z,-1.07
2023-01-19T04:09:07.083Z,-1.06
2023-01-19T04:10:12.673Z,-1.01
2023-01-19T04:11:15.440Z,-1.06
2023-01-19T04:12:18.683Z,-1.02
2023-01-19T04:13:21.377Z,-1.01
2023-01-19T04:14:23.136Z,-1.03
2023-01-19T04:15:25.915Z,-1.02
2023-01-19T04:16:27.569Z,-1.01
2023-01-19T04:17:30.269Z,-0.98
2023-01-19T04:18:34.693Z,-0.98
2023-01-19T04:19:37.761Z,-0.97
2023-01-19T04:20:39.594Z,-0.97
2023-01-19T04:21:42.303Z,-0.97
2023-01-19T04:22:44.027Z,-0.98
2023-01-19T04:23:47.098Z,-0.99
2023-01-19T04:24:48.812Z,-0.96
2023-01-19T04:25:51.560Z,-0.95
2023-01-19T04:26:53.528Z,-0.94
2023-01-19T04:27:58.675Z,-1.01
2023-01-19T04:29:00.560Z,-0.97
2023-01-19T04:30:03.778Z,-0.96
2023-01-19T04:31:06.627Z,-0.94
2023-01-19T04:32:09.345Z,-0.97
2023-01-19T04:33:11.049Z,-0.96
2023-01-19T04:34:13.769Z,-0.94
2023-01-19T04:35:16.878Z,-0.94
2023-01-19T04:36:19.638Z,-0.95
2023-01-19T04:37:21.561Z,-0.99
2023-01-19T04:38:24.619Z,-0.98
2023-01-19T04:39:27.464Z,-0.96
2023-01-19T04:40:30.156Z,-0.93
2023-01-19T04:41:32.852Z,-0.91
2023-01-19T04:42:34.803Z,-0.90
2023-01-19T04:43:38.966Z,-0.89
2023-01-19T04:44:40.706Z,-0.88
2023-01-19T04:45:44.756Z,-0.90
2023-01-19T04:46:46.573Z,-0.88
2023-01-19T04:47:49.259Z,-0.89
2023-01-19T04:48:50.989Z,-0.91
2023-01-19T04:49:53.698Z,-0.84
2023-01-19T04:50:55.328Z,-0.83
2023-01-19T04:51:58.171Z,-0.83
2023-01-19T04:53:01.122Z,-0.91
2023-01-19T04:54:04.262Z,-0.83
2023-01-19T04:55:07.463Z,-0.81
2023-01-19T04:56:10.684Z,-0.81
2023-01-19T04:57:12.374Z,-0.81
2023-01-19T04:58:15.792Z,-0.79
2023-01-19T04:59:20.425Z,-0.83
2023-01-19T05:00:23.538Z,-0.83
2023-01-19T05:01:25.313Z,-0.85
2023-01-19T05:02:28.164Z,-0.87
2023-01-19T05:03:30.039Z,-0.94
2023-01-19T05:04:32.778Z,-0.87
2023-01-19T05:05:34.571Z,-0.88
2023-01-19T05:06:37.297Z,-0.88
2023-01-19T05:07:39.158Z,-0.88
2023-01-19T05:08:43.382Z,-0.88
2023-01-19T05:09:46.276Z,-0.84
2023-01-19T05:10:49.450Z,-0.87
2023-01-19T05:11:51.181Z,-0.88
2023-01-19T05:12:53.882Z,-0.83
2023-01-19T05:13:55.528Z,-0.84
2023-01-19T05:14:59.611Z,-0.79
2023-01-19T05:16:01.815Z,-0.79
2023-01-19T05:17:04.776Z,-0.78
2023-01-19T05:18:06.509Z,-0.76
2023-01-19T05:19:09.302Z,-0.75
2023-01-19T05:20:14.958Z,-0.72
2023-01-19T05:21:18.655Z,-0.73
2023-01-19T05:22:20.575Z,-0.72
2023-01-19T05:23:23.213Z,-0.70
2023-01-19T05:24:24.968Z,-0.71
2023-01-19T05:25:27.731Z,-0.67
2023-01-19T05:26:29.434Z,-0.61
2023-01-19T05:27:32.177Z,-0.57
2023-01-19T05:28:34.271Z,-0.55
2023-01-19T05:29:37.094Z,-0.55
2023-01-19T05:30:40.267Z,-0.50
2023-01-19T05:31:43.088Z,-0.48
2023-01-19T05:32:44.838Z,-0.47
2023-01-19T05:33:48.246Z,-0.45
2023-01-19T05:34:51.019Z,-0.43
2023-01-19T05:35:53.022Z,-0.40
2023-01-19T05:36:55.709Z,-0.39
2023-01-19T05:37:57.387Z,-0.35
2023-01-19T05:39:00.313Z,-0.35
2023-01-19T05:40:02.198Z,-0.34
2023-01-19T05:41:04.921Z,-0.33
2023-01-19T05:42:06.621Z,-0.32
2023-01-19T05:43:09.286Z,-0.29
2023-01-19T05:44:11.385Z,-0.26
2023-01-19T05:45:14.288Z,-0.29
2023-01-19T05:46:17.352Z,-0.27
2023-01-19T05:47:20.109Z,-0.24
2023-01-19T05:48:21.980Z,-0.22
2023-01-19T05:49:24.691Z,-0.20
2023-01-19T05:50:26.382Z,-0.20
2023-01-19T05:51:34.879Z,-0.28
2023-01-19T05:52:37.615Z,-0.25
2023-01-19T05:53:39.482Z,-0.25
2023-01-19T05:54:42.184Z,-0.23
2023-01-19T05:55:43.970Z,-0.19
2023-01-19T05:56:46.785Z,-0.18
2023-01-19T05:57:48.438Z,-0.14
2023-01-19T05:58:51.072Z,-0.16
2023-01-19T05:59:52.849Z,-0.11
2023-01-19T06:00:55.724Z,-0.11
2023-01-19T06:01:59.925Z,-0.06
2023-01-19T06:03:03.181Z,-0.06
2023-01-19T06:04:05.726Z,-0.06
2023-01-19T06:05:09.059Z,-0.02
2023-01-19T06:06:11.541Z,-0.06
2023-01-19T06:07:14.202Z,-0.09
2023-01-19T06:08:15.928Z,-0.10
2023-01-19T06:09:18.644Z,-0.10
2023-01-19T06:10:20.321Z,-0.12
2023-01-19T06:11:23.017Z,-0.13
2023-01-19T06:12:24.961Z,-0.10
2023-01-19T06:13:27.603Z,-0.06
2023-01-19T06:14:29.272Z,-0.04
2023-01-19T06:15:31.909Z,-0.05
2023-01-19T06:16:33.735Z,-0.12
2023-01-19T06:17:38.030Z,-0.13
2023-01-19T06:18:39.868Z,-0.10
2023-01-19T06:19:42.875Z,-0.10
2023-01-19T06:20:44.753Z,-0.19
2023-01-19T06:21:52.032Z,-0.29
2023-01-19T06:22:57.723Z,-0.27
2023-01-19T06:23:59.418Z,-0.29
2023-01-19T06:25:02.508Z,-0.25
2023-01-19T06:26:04.425Z,-0.31
2023-01-19T06:27:07.070Z,-0.42
2023-01-19T06:28:08.761Z,-0.35
2023-01-19T06:29:12.186Z,-0.34
2023-01-19T06:30:14.597Z,-0.35
2023-01-19T06:31:17.399Z,-0.34
2023-01-19T06:32:19.185Z,-0.34
2023-01-19T06:33:24.109Z,-0.32
2023-01-19T06:34:28.708Z,-0.35
2023-01-19T06:35:31.413Z,-0.39
2023-01-19T06:36:33.170Z,-0.40
2023-01-19T06:37:36.792Z,-0.39
2023-01-19T06:38:39.572Z,-0.43
2023-01-19T06:39:42.288Z,-0.40
2023-01-19T06:40:45.843Z,-0.46
2023-01-19T06:41:47.621Z,-0.50
2023-01-19T06:42:50.287Z,-0.45
2023-01-19T06:43:51.976Z,-0.40
2023-01-19T06:44:54.675Z,-0.35
2023-01-19T06:45:56.774Z,-0.37
2023-01-19T06:47:14.921Z,-0.41
2023-01-19T06:48:19.104Z,-0.43
2023-01-19T06:49:23.118Z,-0.45
2023-01-19T06:50:25.939Z,-0.41
2023-01-19T06:51:29.075Z,-0.41
2023-01-19T06:52:30.801Z,-0.42
2023-01-19T06:53:33.958Z,-0.43
2023-01-19T06:54:35.653Z,-0.40
2023-01-19T06:55:39.242Z,-0.35
2023-01-19T06:56:40.961Z,-0.34
2023-01-19T06:57:44.419Z,-0.31
2023-01-19T06:58:47.072Z,-0.41
2023-01-19T06:59:50.019Z,-0.37
2023-01-19T07:00:52.874Z,-0.32
2023-01-19T07:01:56.143Z,-0.32
2023-01-19T07:02:59.385Z,-0.29
2023-01-19T07:04:01.890Z,-0.30
2023-01-19T07:05:07.468Z,-0.32
2023-01-19T07:06:10.248Z,-0.26
2023-01-19T07:07:12.012Z,-0.23
2023-01-19T07:08:15.670Z,-0.24
2023-01-19T07:09:17.785Z,-0.27
2023-01-19T07:10:20.728Z,-0.25
2023-01-19T07:11:29.590Z,-0.26
2023-01-19T07:12:35.569Z,-0.26
2023-01-19T07:13:39.921Z,-0.32
2023-01-19T07:14:41.677Z,-0.28
2023-01-19T07:15:44.356Z,-0.37
2023-01-19T07:16:47.514Z,-0.40
2023-01-19T07:17:49.332Z,-0.42
2023-01-19T07:18:52.011Z,-0.34
2023-01-19T07:19:53.781Z,-0.42
2023-01-19T07:20:59.976Z,-0.46
2023-01-19T07:22:02.277Z,-0.44
2023-01-19T07:23:05.556Z,-0.44
2023-01-19T07:24:08.447Z,-0.41
2023-01-19T07:25:11.311Z,-0.47
2023-01-19T07:26:15.308Z,-0.46
2023-01-19T07:27:17.055Z,-0.44
2023-01-19T07:28:20.571Z,-0.43
2023-01-19T07:29:22.337Z,-0.44
2023-01-19T07:30:25.117Z,-0.38
2023-01-19T07:31:26.868Z,-0.46
2023-01-19T07:32:29.818Z,-0.39
2023-01-19T07:33:33.047Z,-0.42
2023-01-19T07:34:34.875Z,-0.39
2023-01-19T07:35:37.588Z,-0.43
2023-01-19T07:36:41.846Z,-0.46
2023-01-19T07:37:44.505Z,-0.45
2023-01-19T07:38:47.447Z,-0.43
2023-01-19T07:39:50.135Z,-0.40
2023-01-19T07:40:52.823Z,-0.35
2023-01-19T07:41:54.558Z,-0.48
2023-01-19T07:42:57.212Z,-0.51
2023-01-19T07:43:58.968Z,-0.45
2023-01-19T07:45:01.854Z,-0.39
2023-01-19T07:46:06.003Z,-0.35
2023-01-19T07:47:11.248Z,-0.34
2023-01-19T07:48:13.971Z,-0.38
2023-01-19T07:49:16.607Z,-0.45
2023-01-19T07:50:24.469Z,-0.39
2023-01-19T07:51:27.839Z,-0.42
2023-01-19T07:52:32.013Z,-0.39
2023-01-19T07:53:33.961Z,-0.35
2023-01-19T07:54:36.676Z,-0.38
2023-01-19T07:55:39.375Z,-0.40
2023-01-19T07:56:41.173Z,-0.38
2023-01-19T07:57:43.834Z,-0.39
2023-01-19T07:58:46.840Z,-0.32
2023-01-19T07:59:49.615Z,-0.29
2023-01-19T08:00:51.561Z,-0.26
2023-01-19T08:01:54.438Z,-0.26
2023-01-19T08:02:59.924Z,-0.27
2023-01-19T08:04:02.847Z,-0.22
2023-01-19T08:05:05.048Z,-0.21
2023-01-19T08:06:08.363Z,-0.32
2023-01-19T08:07:10.231Z,-0.30
2023-01-19T08:08:14.379Z,-0.27
2023-01-19T08:09:16.125Z,-0.24
2023-01-19T08:10:18.887Z,-0.26
2023-01-19T08:11:20.608Z,-0.21
2023-01-19T08:12:23.337Z,-0.29
2023-01-19T08:13:26.209Z,-0.25
2023-01-19T08:14:27.941Z,-0.26
2023-01-19T08:15:30.767Z,-0.21
2023-01-19T08:16:32.752Z,-0.16
2023-01-19T08:17:35.459Z,-0.21
2023-01-19T08:18:38.150Z,-0.18
2023-01-19T08:19:41.637Z,-0.17
2023-01-19T08:20:43.432Z,-0.12
2023-01-19T08:21:46.458Z,-0.12
2023-01-19T08:22:48.185Z,-0.06
2023-01-19T08:23:56.067Z,-0.04
2023-01-19T08:24:57.771Z,0.01
2023-01-19T08:26:00.503Z,0.05
2023-01-19T08:27:04.000Z,0.09
2023-01-19T08:28:08.091Z,0.09
2023-01-19T08:29:09.965Z,0.14
2023-01-19T08:30:13.298Z,0.20
2023-01-19T08:31:21.021Z,0.19
2023-01-19T08:32:25.172Z,0.30
2023-01-19T08:33:26.897Z,0.35
2023-01-19T08:34:30.890Z,0.44
2023-01-19T08:35:33.732Z,0.50
2023-01-19T08:36:36.513Z,0.51
2023-01-19T08:37:38.198Z,0.49
2023-01-19T08:38:43.624Z,0.50
2023-01-19T08:39:47.665Z,0.59
2023-01-19T08:40:49.479Z,0.64
2023-01-19T08:41:52.527Z,0.66
2023-01-19T08:43:01.032Z,0.74
2023-01-19T08:44:02.939Z,0.78
2023-01-19T08:45:06.552Z,0.80
2023-01-19T08:46:08.438Z,0.79
2023-01-19T08:47:11.303Z,0.81
2023-01-19T08:48:13.498Z,0.88
2023-01-19T08:49:17.128Z,0.94
2023-01-19T08:50:18.798Z,0.90
2023-01-19T08:51:21.750Z,0.85
2023-01-19T08:52:24.738Z,0.95
2023-01-19T08:53:27.405Z,0.97
2023-01-19T08:54:29.148Z,0.99
2023-01-19T08:55:34.728Z,1.13
2023-01-19T08:56:37.446Z,1.17
2023-01-19T08:57:39.143Z,1.21
2023-01-19T08:58:42.861Z,1.27
2023-01-19T08:59:47.465Z,1.28
2023-01-19T09:00:52.578Z,1.27
2023-01-19T09:01:55.416Z,1.31
2023-01-19T09:02:57.651Z,1.34
2023-01-19T09:04:00.305Z,1.36
2023-01-19T09:05:04.530Z,1.40
2023-01-19T09:06:07.750Z,1.44
2023-01-19T09:07:09.427Z,1.52
2023-01-19T09:08:14.073Z,1.46
2023-01-19T09:09:16.741Z,1.47
2023-01-19T09:10:19.012Z,1.51
2023-01-19T09:11:23.130Z,1.51
2023-01-19T09:12:24.943Z,1.51
2023-01-19T09:13:27.647Z,1.60
2023-01-19T09:14:29.469Z,1.63
2023-01-19T09:15:33.950Z,1.67
2023-01-19T09:16:36.743Z,1.69
2023-01-19T09:17:38.465Z,1.74
2023-01-19T09:18:41.288Z,1.80
2023-01-19T09:19:43.028Z,1.82
2023-01-19T09:20:47.896Z,1.85
2023-01-19T09:21:50.807Z,1.86
2023-01-19T09:22:52.498Z,1.96
2023-01-19T09:23:55.684Z,2.00
2023-01-19T09:24:57.337Z,2.05
2023-01-19T09:26:02.000Z,1.95
2023-01-19T09:27:05.161Z,1.99
2023-01-19T09:28:09.255Z,2.00
2023-01-19T09:29:12.024Z,2.07
2023-01-19T09:30:14.597Z,2.16
2023-01-19T09:31:17.665Z,2.15
2023-01-19T09:32:19.885Z,2.10
2023-01-19T09:33:22.698Z,2.17
2023-01-19T09:34:25.580Z,2.24
2023-01-19T09:35:28.287Z,2.31
2023-01-19T09:36:32.443Z,2.35
2023-01-19T09:37:35.138Z,2.41
2023-01-19T09:38:37.465Z,2.45
2023-01-19T09:39:40.255Z,2.45
2023-01-19T09:40:43.727Z,2.52
2023-01-19T09:41:50.400Z,2.48
2023-01-19T09:42:56.915Z,2.57
2023-01-19T09:44:01.111Z,2.59
2023-01-19T09:45:06.252Z,2.49
2023-01-19T09:46:12.698Z,2.45
2023-01-19T09:47:17.224Z,2.42
2023-01-19T09:48:31.189Z,2.45
2023-01-19T09:49:38.017Z,2.55
2023-01-19T09:50:46.644Z,2.42
2023-01-19T09:51:50.602Z,2.28
2023-01-19T09:52:56.447Z,2.36
2023-01-19T09:54:06.330Z,2.43
2023-01-19T09:55:12.105Z,2.56
2023-01-19T09:56:15.663Z,2.70
2023-01-19T09:57:18.362Z,2.67
2023-01-19T09:58:22.625Z,2.79
2023-01-19T09:59:26.780Z,2.79
2023-01-19T10:00:29.701Z,2.69
2023-01-19T10:01:48.075Z,2.74
2023-01-19T10:02:54.572Z,2.76
2023-01-19T10:04:29.920Z,2.83
2023-01-19T10:05:35.088Z,2.89
2023-01-19T10:06:36.899Z,2.94
2023-01-19T10:08:06.106Z,2.92
2023-01-19T10:09:14.585Z,2.90
2023-01-19T10:10:21.417Z,3.03
2023-01-19T10:11:42.010Z,3.01
2023-01-19T10:12:55.608Z,3.04
2023-01-19T10:14:00.109Z,2.94
2023-01-19T10:15:07.031Z,2.97
2023-01-19T10:16:31.591Z,3.05
2023-01-19T10:17:39.990Z,3.20
2023-01-19T10:18:47.951Z,3.20
2023-01-19T10:19:51.819Z,3.03
2023-01-19T10:20:57.723Z,3.07
2023-01-19T10:22:01.016Z,3.10
2023-01-19T10:23:06.225Z,3.23
2023-01-19T10:24:16.059Z,3.21
2023-01-19T10:25:20.311Z,3.19
2023-01-19T10:26:25.169Z,3.10
2023-01-19T10:27:28.745Z,3.21
2023-01-19T10:28:32.125Z,3.35
2023-01-19T10:29:39.284Z,3.35
2023-01-19T10:30:42.860Z,3.35
2023-01-19T10:31:47.476Z,3.07
2023-01-19T10:32:50.612Z,3.14
2023-01-19T10:33:54.149Z,3.07
2023-01-19T10:34:58.452Z,3.05
2023-01-19T10:36:05.171Z,3.03
2023-01-19T10:37:17.594Z,3.03
2023-01-19T10:38:22.215Z,2.91
2023-01-19T10:39:25.061Z,2.91
2023-01-19T10:40:31.187Z,2.84
2023-01-19T10:41:41.411Z,2.84
2023-01-19T10:42:43.073Z,2.84
2023-01-19T10:43:46.741Z,2.80
2023-01-19T10:44:51.000Z,2.85
2023-01-19T10:45:52.767Z,2.88
2023-01-19T10:46:56.930Z,2.80
2023-01-19T10:48:00.878Z,2.78
2023-01-19T10:49:03.888Z,2.77
2023-01-19T10:50:23.955Z,2.73
2023-01-19T10:51:27.034Z,2.68
2023-01-19T10:52:31.495Z,2.59
2023-01-19T10:53:34.368Z,2.61
2023-01-19T10:54:38.083Z,2.62
2023-01-19T10:55:40.492Z,2.52
2023-01-19T10:56:43.481Z,2.35
2023-01-19T10:57:48.870Z,2.39
2023-01-19T10:58:50.646Z,2.24
2023-01-19T10:59:54.721Z,2.23
2023-01-19T11:01:13.494Z,2.32
2023-01-19T11:02:19.365Z,2.31
2023-01-19T11:03:24.082Z,2.27
2023-01-19T11:04:30.336Z,2.25
2023-01-19T11:05:36.624Z,2.26
2023-01-19T11:06:38.371Z,2.13
2023-01-19T11:07:41.015Z,2.18
2023-01-19T11:08:44.139Z,2.11
2023-01-19T11:09:46.994Z,2.10
2023-01-19T11:10:52.808Z,2.07
2023-01-19T11:11:56.843Z,1.95
2023-01-19T11:13:02.355Z,1.98
2023-01-19T11:14:10.244Z,1.95
2023-01-19T11:15:22.991Z,1.86
2023-01-19T11:16:28.550Z,1.90
2023-01-19T11:17:31.281Z,1.90
2023-01-19T11:18:34.733Z,1.90
2023-01-19T11:19:37.427Z,1.87
2023-01-19T11:20:49.279Z,1.94
2023-01-19T11:21:52.047Z,1.89
2023-01-19T11:23:06.173Z,1.88
2023-01-19T11:24:13.310Z,1.92
2023-01-19T11:25:31.544Z,1.95
2023-01-19T11:26:34.690Z,1.96
2023-01-19T11:27:38.196Z,1.95
2023-01-19T11:28:45.059Z,1.90
2023-01-19T11:29:49.569Z,1.83
2023-01-19T11:30:56.915Z,1.85
2023-01-19T11:32:11.819Z,1.83
2023-01-19T11:33:25.201Z,1.73
2023-01-19T11:34:32.917Z,1.64
2023-01-19T11:35:37.704Z,1.71
2023-01-19T11:36:40.503Z,1.72
2023-01-19T11:37:43.275Z,1.77
2023-01-19T11:38:46.336Z,1.69
2023-01-19T11:39:50.534Z,1.68
2023-01-19T11:40:56.294Z,1.69
2023-01-19T11:41:59.551Z,1.64
2023-01-19T11:43:02.610Z,1.62
2023-01-19T11:44:15.112Z,1.59
2023-01-19T11:45:18.325Z,1.54
2023-01-19T11:46:23.993Z,1.61
2023-01-19T11:47:28.289Z,1.56
2023-01-19T11:48:34.774Z,1.56
2023-01-19T11:49:42.535Z,1.62
2023-01-19T11:50:46.410Z,1.57
2023-01-19T11:51:53.354Z,1.56
2023-01-19T11:53:00.446Z,1.55
2023-01-19T11:54:04.335Z,1.52
2023-01-19T11:55:12.069Z,1.58
2023-01-19T11:56:14.771Z,1.50
2023-01-19T11:57:18.076Z,1.44
2023-01-19T11:58:20.957Z,1.39
2023-01-19T11:59:24.893Z,1.39
2023-01-19T12:00:35.573Z,1.33
2023-01-19T12:01:45.035Z,1.30
2023-01-19T12:02:48.802Z,1.25
2023-01-19T12:03:56.417Z,1.29
2023-01-19T12:05:01.566Z,1.36
2023-01-19T12:06:05.840Z,1.40
2023-01-19T12:07:10.617Z,1.43
2023-01-19T12:08:15.825Z,1.46
2023-01-19T12:09:21.060Z,1.52
2023-01-19T12:10:27.157Z,1.49
2023-01-19T12:11:33.758Z,1.46
2023-01-19T12:12:38.355Z,1.43
2023-01-19T12:13:41.685Z,1.49
2023-01-19T12:14:48.865Z,1.51
2023-01-19T12:15:54.510Z,1.46
2023-01-19T12:17:01.564Z,1.49
2023-01-19T12:18:05.186Z,1.54
2023-01-19T12:19:14.469Z,1.51
2023-01-19T12:20:26.019Z,1.50
2023-01-19T12:21:28.787Z,1.59
2023-01-19T12:22:36.354Z,1.56
2023-01-19T12:23:45.723Z,1.52
2023-01-19T12:24:53.263Z,1.56
2023-01-19T12:26:06.390Z,1.64
2023-01-19T12:27:14.795Z,1.66
2023-01-19T12:28:18.307Z,1.66
2023-01-19T12:29:22.793Z,1.68
2023-01-19T12:30:28.017Z,1.70
2023-01-19T12:31:29.958Z,1.62
2023-01-19T12:32:37.431Z,1.61
2023-01-19T12:33:40.316Z,1.65
2023-01-19T12:34:44.198Z,1.70
2023-01-19T12:35:57.236Z,1.62
2023-01-19T12:37:04.886Z,1.56
2023-01-19T12:38:25.030Z,1.65
2023-01-19T12:39:30.745Z,1.68
2023-01-19T12:40:35.377Z,1.65
2023-01-19T12:41:39.630Z,1.73
2023-01-19T12:42:44.635Z,1.76
2023-01-19T12:43:47.899Z,1.78
2023-01-19T12:44:52.624Z,1.82
2023-01-19T12:45:54.386Z,1.84
2023-01-19T12:47:03.406Z,1.82
2023-01-19T12:48:21.599Z,1.81
2023-01-19T12:49:28.490Z,1.77
2023-01-19T12:50:34.346Z,1.77
2023-01-19T12:51:36.074Z,1.78
2023-01-19T12:52:41.563Z,1.77
2023-01-19T12:53:51.732Z,1.72
2023-01-19T12:55:01.463Z,1.70
2023-01-19T12:56:06.504Z,1.71
2023-01-19T12:57:09.737Z,1.74
2023-01-19T12:58:17.690Z,1.73
2023-01-19T12:59:24.243Z,1.77
2023-01-19T13:00:33.178Z,1.69
2023-01-19T13:01:35.992Z,1.68
2023-01-19T13:02:43.473Z,1.67
2023-01-19T13:04:00.733Z,1.62
2023-01-19T13:05:13.699Z,1.64
2023-01-19T13:06:16.529Z,1.72
2023-01-19T13:07:19.687Z,1.79
2023-01-19T13:08:31.252Z,1.80
2023-01-19T13:09:35.372Z,1.81
2023-01-19T13:11:15.478Z,1.79
2023-01-19T13:12:22.827Z,1.85
2023-01-19T13:13:25.768Z,1.84
2023-01-19T13:14:36.569Z,1.73
2023-01-19T13:15:39.560Z,1.78
2023-01-19T13:17:00.153Z,1.83
2023-01-19T13:18:03.201Z,1.73
2023-01-19T13:19:16.265Z,1.65
2023-01-19T13:20:28.986Z,1.69
2023-01-19T13:21:32.938Z,1.66
2023-01-19T13:23:17.059Z,1.56
2023-01-19T13:24:22.374Z,1.66
2023-01-19T13:25:30.942Z,1.68
2023-01-19T13:26:35.225Z,1.72
2023-01-19T13:27:37.665Z,1.74
2023-01-19T13:28:43.791Z,1.69
2023-01-19T13:29:45.707Z,1.75
2023-01-19T13:30:56.452Z,1.75
2023-01-19T13:32:03.346Z,1.71
2023-01-19T13:33:10.491Z,1.74
2023-01-19T13:34:16.233Z,1.76
2023-01-19T13:35:19.269Z,1.75
2023-01-19T13:36:26.592Z,1.76
2023-01-19T13:37:37.913Z,1.74
2023-01-19T13:38:42.513Z,1.71
2023-01-19T13:39:49.923Z,1.69
2023-01-19T13:40:53.506Z,1.74
2023-01-19T13:41:57.407Z,1.76
2023-01-19T13:42:59.322Z,1.79
2023-01-19T13:44:03.867Z,1.79
2023-01-19T13:45:16.914Z,1.72
2023-01-19T13:46:20.007Z,1.66
2023-01-19T13:47:23.472Z,1.66
2023-01-19T13:48:26.616Z,1.69
2023-01-19T13:49:32.625Z,1.70
2023-01-19T13:50:35.924Z,1.69
2023-01-19T13:51:38.652Z,1.53
2023-01-19T13:52:44.472Z,1.52
2023-01-19T13:53:54.779Z,1.60
2023-01-19T13:55:01.739Z,1.63
2023-01-19T13:56:20.515Z,1.64
2023-01-19T13:57:24.309Z,1.70
2023-01-19T13:58:28.502Z,1.66
2023-01-19T13:59:31.368Z,1.68
2023-01-19T14:00:34.063Z,1.72
2023-01-19T14:01:38.085Z,1.69
2023-01-19T14:02:40.563Z,1.71
2023-01-19T14:03:46.360Z,1.60
2023-01-19T14:04:50.402Z,1.61